Time;durP1;ratioP1;P1;durP2;ratioP2;P2;SDS_P1;SDS_P2;PMS_P1;PMS_P2;Temp;Humidity;BMP_temperature;BMP_pressure;BME280_temperature;BME280_humidity;BME280_pressure;Samples;Min_cycle;Max_cycle;Signal;HPM_P1;HPM_P2
2023/07/29 00:00:42;;;;;;;1.92;0.90;;;;;;;20.70;100.00;99549.63;5092428;28;20039;-64
2023/07/29 00:03:08;;;;;;;3.03;0.90;;;;;;;20.73;100.00;99550.25;5092390;28;20441;-63
2023/07/29 00:05:33;;;;;;;1.80;0.77;;;;;;;20.73;100.00;99539.44;5091180;28;20235;-64
2023/07/29 00:07:59;;;;;;;1.80;1.10;;;;;;;20.73;100.00;99544.84;5091619;28;20441;-64
2023/07/29 00:10:25;;;;;;;4.13;1.45;;;;;;;20.76;100.00;99547.28;5091708;28;20028;-64
2023/07/29 00:12:51;;;;;;;3.95;1.20;;;;;;;20.76;100.00;99549.97;5090712;28;20074;-63
2023/07/29 00:15:16;;;;;;;3.38;1.20;;;;;;;20.76;100.00;99544.56;5084906;28;20024;-64
2023/07/29 00:17:42;;;;;;;2.00;1.10;;;;;;;20.79;100.00;99547.03;5071538;28;20033;-64
2023/07/29 00:20:08;;;;;;;2.45;0.73;;;;;;;20.80;100.00;99543.34;5086692;28;20032;-63
2023/07/29 00:22:33;;;;;;;2.38;1.00;;;;;;;20.83;100.00;99544.94;5091032;28;20080;-64
2023/07/29 00:24:59;;;;;;;2.38;1.10;;;;;;;20.85;100.00;99554.66;5090107;28;20044;-64
2023/07/29 00:27:24;;;;;;;1.70;0.98;;;;;;;20.89;100.00;99550.69;5089705;28;20483;-63
2023/07/29 00:29:50;;;;;;;4.75;1.05;;;;;;;20.92;100.00;99547.72;5090537;28;20024;-64
2023/07/29 00:32:15;;;;;;;3.08;1.20;;;;;;;20.93;100.00;99554.00;5081533;28;20036;-63
2023/07/29 00:34:41;;;;;;;1.42;0.95;;;;;;;20.95;100.00;99549.34;5070101;28;20540;-63
2023/07/29 00:37:06;;;;;;;2.28;1.00;;;;;;;20.97;100.00;99551.91;5074779;28;20587;-63
2023/07/29 00:39:32;;;;;;;2.53;1.23;;;;;;;21.01;100.00;99550.69;5091278;28;20535;-63
2023/07/29 00:41:58;;;;;;;1.77;1.02;;;;;;;21.01;100.00;99545.28;5090584;28;20076;-64
2023/07/29 00:44:24;;;;;;;1.38;0.80;;;;;;;21.04;100.00;99531.53;5088194;28;20032;-63
2023/07/29 00:46:52;;;;;;;3.05;1.33;;;;;;;21.03;100.00;99527.09;5089513;28;20028;-63
2023/07/29 00:49:18;;;;;;;2.22;1.15;;;;;;;21.03;100.00;99536.06;5089075;28;20399;-63
2023/07/29 00:51:43;;;;;;;2.83;1.38;;;;;;;21.04;100.00;99528.84;5090457;28;20036;-63
2023/07/29 00:54:08;;;;;;;4.57;1.30;;;;;;;21.02;100.00;99528.09;5090577;28;20032;-64
2023/07/29 00:56:35;;;;;;;1.98;0.90;;;;;;;20.85;100.00;99515.94;5090322;28;20048;-63
2023/07/29 00:59:02;;;;;;;1.83;0.95;;;;;;;20.74;100.00;99516.81;5091199;28;20047;-64
2023/07/29 01:01:31;;;;;;;3.72;1.42;;;;;;;20.79;100.00;99511.88;5088449;28;20265;-63
2023/07/29 01:03:56;;;;;;;3.50;1.08;;;;;;;20.82;100.00;99517.03;5089142;28;20391;-64
2023/07/29 01:06:34;;;;;;;2.50;1.38;;;;;;;20.84;100.00;99516.91;5091076;28;20109;-64
2023/07/29 01:09:07;;;;;;;1.77;1.00;;;;;;;20.68;100.00;99517.31;5090266;28;20032;-64
2023/07/29 01:12:08;;;;;;;2.92;1.60;;;;;;;20.62;100.00;99515.13;5087642;28;20060;-63
2023/07/29 01:14:39;;;;;;;1.95;1.10;;;;;;;20.60;100.00;99514.38;5081845;28;20047;-63
2023/07/29 01:17:11;;;;;;;6.38;1.30;;;;;;;20.60;100.00;99506.28;5069898;28;20427;-63
2023/07/29 01:20:07;;;;;;;1.88;0.98;;;;;;;20.59;100.00;99507.25;5086459;28;20052;-63
2023/07/29 01:22:37;;;;;;;2.88;1.00;;;;;;;20.67;100.00;99501.22;5084940;28;20387;-64
2023/07/29 01:25:03;;;;;;;1.92;1.20;;;;;;;20.65;100.00;99504.06;5069751;28;20052;-63
2023/07/29 01:27:29;;;;;;;2.28;1.00;;;;;;;20.62;100.00;99507.00;5071694;28;20117;-63
2023/07/29 01:29:56;;;;;;;2.25;1.40;;;;;;;20.72;100.00;99504.41;5088671;28;20125;-64
2023/07/29 01:32:35;;;;;;;2.35;1.00;;;;;;;20.80;100.00;99500.09;5088783;28;20863;-64
2023/07/29 01:35:21;;;;;;;2.17;1.35;;;;;;;20.81;100.00;99499.09;5088332;28;20719;-64
2023/07/29 01:37:51;;;;;;;2.80;1.10;;;;;;;20.83;100.00;99509.78;5089075;28;20099;-64
2023/07/29 01:40:17;;;;;;;2.13;1.52;;;;;;;20.83;100.00;99502.53;5088102;28;20027;-64
2023/07/29 01:42:45;;;;;;;3.40;1.27;;;;;;;20.81;100.00;99507.22;5089121;28;20871;-64
2023/07/29 01:45:10;;;;;;;3.72;1.42;;;;;;;20.82;100.00;99500.81;5087721;28;20024;-64
2023/07/29 01:47:38;;;;;;;2.35;1.27;;;;;;;20.83;100.00;99501.69;5088143;28;20510;-64
2023/07/29 01:50:04;;;;;;;2.35;1.13;;;;;;;20.85;100.00;99502.41;5088955;28;20028;-64
2023/07/29 01:52:29;;;;;;;2.28;1.20;;;;;;;20.82;100.00;99492.69;5089489;28;20111;-63
2023/07/29 01:54:54;;;;;;;1.85;1.10;;;;;;;20.87;100.00;99498.59;5087841;28;20380;-63
2023/07/29 01:57:20;;;;;;;2.53;1.30;;;;;;;20.87;100.00;99504.00;5089237;28;20022;-63
2023/07/29 01:59:45;;;;;;;1.80;1.23;;;;;;;20.88;100.00;99500.31;5078585;28;20032;-63
2023/07/29 02:02:11;;;;;;;2.00;1.10;;;;;;;20.89;100.00;99504.72;5069027;28;20024;-63
2023/07/29 02:04:37;;;;;;;2.33;1.17;;;;;;;20.92;100.00;99490.13;5068815;28;20417;-64
2023/07/29 02:07:02;;;;;;;3.28;1.20;;;;;;;20.91;100.00;99483.84;5080400;28;20024;-63
2023/07/29 02:09:27;;;;;;;4.50;1.38;;;;;;;20.92;100.00;99485.53;5086522;28;20045;-64
2023/07/29 02:11:53;;;;;;;2.60;1.58;;;;;;;20.95;100.00;99487.16;5088840;28;20050;-63
2023/07/29 02:14:18;;;;;;;3.05;1.58;;;;;;;20.95;100.00;99490.69;5088211;28;20088;-64
2023/07/29 02:16:44;;;;;;;1.67;1.17;;;;;;;20.93;100.00;99484.56;5083077;28;20047;-63
2023/07/29 02:19:09;;;;;;;2.15;1.20;;;;;;;20.94;100.00;99491.69;5087295;28;20111;-64
2023/07/29 02:21:35;;;;;;;2.40;1.23;;;;;;;20.94;100.00;99494.41;5086319;28;20028;-64
2023/07/29 02:24:00;;;;;;;2.55;1.30;;;;;;;20.98;100.00;99488.75;5086700;28;20051;-63
2023/07/29 02:26:25;;;;;;;3.05;1.50;;;;;;;20.97;100.00;99485.22;5086266;28;20398;-64
2023/07/29 02:28:51;;;;;;;2.58;1.40;;;;;;;21.03;100.00;99491.94;5086202;28;20024;-64
2023/07/29 02:31:24;;;;;;;2.33;1.40;;;;;;;21.05;100.00;99485.44;5085605;28;20102;-64
2023/07/29 02:33:50;;;;;;;1.98;0.90;;;;;;;21.06;100.00;99487.13;5085608;28;20475;-65
2023/07/29 02:36:16;;;;;;;2.85;1.27;;;;;;;21.08;100.00;99489.72;5087932;28;20032;-63
2023/07/29 02:38:42;;;;;;;3.03;1.40;;;;;;;21.08;100.00;99478.88;5087856;28;20031;-64
2023/07/29 02:41:12;;;;;;;3.63;1.83;;;;;;;21.07;100.00;99480.72;5086685;28;20444;-64
2023/07/29 02:43:38;;;;;;;2.15;1.20;;;;;;;21.11;100.00;99481.34;5087464;28;20028;-64
2023/07/29 02:46:04;;;;;;;2.25;1.23;;;;;;;21.10;100.00;99485.91;5087385;28;20032;-64
2023/07/29 02:48:30;;;;;;;3.08;1.40;;;;;;;21.12;100.00;99480.38;5088667;28;20035;-64
2023/07/29 02:50:55;;;;;;;2.17;1.45;;;;;;;21.10;100.00;99471.50;5090569;28;20020;-64
2023/07/29 02:53:22;;;;;;;3.47;1.27;;;;;;;21.10;100.00;99469.69;5092058;28;20055;-64
2023/07/29 02:55:48;;;;;;;4.45;1.30;;;;;;;21.11;100.00;99468.69;5092497;28;20042;-63
2023/07/29 02:58:14;;;;;;;2.28;1.23;;;;;;;21.10;100.00;99471.50;5092233;28;20028;-64
2023/07/29 03:00:41;;;;;;;3.63;1.20;;;;;;;21.08;100.00;99463.53;5092947;28;20024;-64
2023/07/29 03:03:07;;;;;;;1.95;0.95;;;;;;;21.08;100.00;99452.72;5092270;28;20047;-64
2023/07/29 03:05:33;;;;;;;3.00;1.10;;;;;;;21.06;100.00;99448.41;5092111;28;20024;-64
2023/07/29 03:07:59;;;;;;;2.60;1.10;;;;;;;21.07;100.00;99442.03;5091923;28;20032;-64
2023/07/29 03:10:25;;;;;;;2.85;0.90;;;;;;;21.08;100.00;99430.22;5089649;28;20043;-64
2023/07/29 03:12:50;;;;;;;5.47;1.05;;;;;;;21.02;100.00;99425.34;5090307;28;20039;-64
2023/07/29 03:15:16;;;;;;;4.20;1.20;;;;;;;21.10;100.00;99441.75;5091467;28;20450;-64
2023/07/29 03:17:42;;;;;;;4.60;1.30;;;;;;;21.13;100.00;99447.78;5091445;28;20476;-64
2023/07/29 03:20:07;;;;;;;3.58;1.40;;;;;;;21.17;100.00;99456.50;5089487;28;20035;-64
2023/07/29 03:22:33;;;;;;;6.75;1.85;;;;;;;21.18;100.00;99466.31;5089893;28;20061;-63
2023/07/29 03:24:58;;;;;;;2.80;1.27;;;;;;;21.19;100.00;99478.84;5071872;28;20072;-64
2023/07/29 03:27:24;;;;;;;5.30;1.73;;;;;;;21.16;100.00;99485.38;5054602;28;20078;-67
2023/07/29 03:29:49;;;;;;;5.97;1.40;;;;;;;21.17;100.00;99483.53;5055026;28;20094;-66
2023/07/29 03:32:14;;;;;;;3.78;1.13;;;;;;;21.17;100.00;99470.03;5067848;28;20070;-66
2023/07/29 03:34:40;;;;;;;3.15;1.48;;;;;;;21.09;100.00;99469.81;5070454;28;20024;-65
2023/07/29 03:37:06;;;;;;;2.83;1.65;;;;;;;21.07;100.00;99469.91;5070774;28;20069;-66
2023/07/29 03:39:32;;;;;;;3.00;1.40;;;;;;;21.06;100.00;99467.34;5052132;28;20444;-65
2023/07/29 03:41:57;;;;;;;3.13;1.65;;;;;;;21.04;100.00;99474.75;5085905;28;20082;-65
2023/07/29 03:44:23;;;;;;;4.57;2.10;;;;;;;21.00;100.00;99467.88;5070270;28;20075;-65
2023/07/29 03:46:48;;;;;;;5.57;2.90;;;;;;;20.99;100.00;99467.00;5072883;28;20054;-65
2023/07/29 03:49:14;;;;;;;2.97;1.90;;;;;;;21.01;100.00;99466.88;5072792;28;20033;-65
2023/07/29 03:51:39;;;;;;;3.42;1.60;;;;;;;20.99;100.00;99463.47;5072483;28;20102;-64
2023/07/29 03:54:06;;;;;;;8.80;1.85;;;;;;;21.01;100.00;99450.63;5073467;28;20119;-65
2023/07/29 03:56:31;;;;;;;4.25;1.73;;;;;;;20.98;100.00;99445.50;5054240;28;20047;-65
2023/07/29 03:59:05;;;;;;;5.55;2.03;;;;;;;20.98;100.00;99456.31;5074835;28;20480;-64
2023/07/29 04:01:30;;;;;;;3.03;1.48;;;;;;;20.98;100.00;99456.31;5095206;28;20038;-65
2023/07/29 04:03:56;;;;;;;5.18;1.48;;;;;;;20.89;100.00;99441.69;5085724;28;20017;-66
2023/07/29 04:06:22;;;;;;;4.47;1.80;;;;;;;20.86;100.00;99437.41;5073692;28;20036;-65
2023/07/29 04:08:48;;;;;;;3.95;1.63;;;;;;;20.92;100.00;99452.25;5059846;28;20059;-65
2023/07/29 04:11:13;;;;;;;6.53;2.05;;;;;;;20.90;100.00;99443.41;5051876;28;20079;-65
2023/07/29 04:13:39;;;;;;;8.38;2.20;;;;;;;20.88;100.00;99440.84;5067128;28;20034;-65
2023/07/29 04:16:04;;;;;;;2.85;1.50;;;;;;;20.92;100.00;99447.69;5092027;28;20036;-65
2023/07/29 04:18:30;;;;;;;2.63;1.55;;;;;;;20.87;100.00;99444.50;5077775;28;20025;-66
2023/07/29 04:20:55;;;;;;;3.55;1.48;;;;;;;20.88;100.00;99446.25;5072499;28;20617;-65
2023/07/29 04:23:21;;;;;;;3.65;1.77;;;;;;;20.83;100.00;99442.19;5073918;28;20059;-65
2023/07/29 04:25:46;;;;;;;6.18;2.03;;;;;;;20.81;100.00;99447.72;5088803;28;20052;-65
2023/07/29 04:28:12;;;;;;;5.50;2.38;;;;;;;20.82;100.00;99446.75;5092686;28;20057;-65
2023/07/29 04:30:37;;;;;;;3.78;1.75;;;;;;;20.87;100.00;99452.63;5082983;28;20024;-65
2023/07/29 04:33:03;;;;;;;4.45;2.50;;;;;;;20.85;100.00;99457.31;5075486;28;20031;-65
2023/07/29 04:35:28;;;;;;;5.47;1.60;;;;;;;20.85;100.00;99459.16;5092539;28;20032;-64
2023/07/29 04:37:53;;;;;;;6.00;1.85;;;;;;;20.85;100.00;99462.72;5092817;28;20020;-65
2023/07/29 04:40:19;;;;;;;3.72;1.85;;;;;;;20.88;100.00;99462.47;5091445;28;20527;-65
2023/07/29 04:42:44;;;;;;;5.35;1.30;;;;;;;20.88;100.00;99461.59;5092372;28;20076;-65
2023/07/29 04:45:10;;;;;;;3.83;1.48;;;;;;;20.89;100.00;99461.47;5090483;28;20383;-65
2023/07/29 04:47:35;;;;;;;4.00;1.40;;;;;;;20.90;100.00;99468.59;5092580;28;20072;-65
2023/07/29 04:50:01;;;;;;;6.13;1.75;;;;;;;20.95;100.00;99465.53;5091485;28;20041;-64
2023/07/29 04:52:26;;;;;;;4.30;1.63;;;;;;;20.98;100.00;99472.53;5091589;28;20028;-65
2023/07/29 04:54:51;;;;;;;2.67;1.55;;;;;;;21.01;100.00;99469.56;5089419;28;20027;-65
2023/07/29 04:57:17;;;;;;;4.85;1.92;;;;;;;21.01;100.00;99475.84;5091450;28;20032;-64
2023/07/29 04:59:42;;;;;;;4.25;1.48;;;;;;;21.05;100.00;99471.03;5090689;28;20035;-64
2023/07/29 05:02:08;;;;;;;3.38;1.65;;;;;;;20.93;100.00;99449.44;5091133;28;20053;-65
2023/07/29 05:04:33;;;;;;;4.10;1.70;;;;;;;21.14;100.00;99481.06;5090544;28;20444;-65
2023/07/29 05:06:58;;;;;;;3.67;1.73;;;;;;;21.20;100.00;99488.69;5089647;28;20032;-64
2023/07/29 05:09:24;;;;;;;3.10;1.50;;;;;;;21.25;100.00;99486.47;5067155;28;20485;-65
2023/07/29 05:11:49;;;;;;;2.95;1.50;;;;;;;21.26;100.00;99482.75;5072582;28;20027;-65
2023/07/29 05:14:16;;;;;;;5.10;1.60;;;;;;;21.29;100.00;99488.75;5088069;28;20023;-65
2023/07/29 05:16:42;;;;;;;3.47;1.60;;;;;;;21.31;100.00;99480.50;5087440;28;20035;-64
2023/07/29 05:19:07;;;;;;;3.55;1.80;;;;;;;21.34;100.00;99474.84;5086745;28;20020;-64
2023/07/29 05:21:33;;;;;;;5.28;1.90;;;;;;;21.35;100.00;99472.00;5088966;28;20065;-65
2023/07/29 05:23:59;;;;;;;7.47;3.88;;;;;;;21.37;100.00;99475.44;5087708;28;21526;-65
2023/07/29 05:26:24;;;;;;;10.95;4.60;;;;;;;21.41;100.00;99481.44;5087224;28;20089;-65
2023/07/29 05:28:50;;;;;;;19.67;13.70;;;;;;;21.41;100.00;99476.03;5085409;28;20028;-64
2023/07/29 05:31:15;;;;;;;10.60;6.32;;;;;;;21.39;100.00;99489.69;5088601;28;20380;-64
2023/07/29 05:33:40;;;;;;;8.32;5.15;;;;;;;21.37;100.00;99483.56;5088098;28;20107;-64
2023/07/29 05:36:06;;;;;;;4.72;3.05;;;;;;;21.32;100.00;99491.19;5087302;28;20031;-64
2023/07/29 05:38:31;;;;;;;5.53;2.10;;;;;;;21.33;100.00;99501.06;5088403;28;20462;-65
2023/07/29 05:40:57;;;;;;;2.78;1.67;;;;;;;21.30;100.00;99505.88;5089555;28;20024;-64
2023/07/29 05:43:24;;;;;;;3.72;2.08;;;;;;;21.32;100.00;99509.28;5089202;28;20569;-65
2023/07/29 05:45:50;;;;;;;3.40;1.70;;;;;;;21.28;100.00;99508.72;5090549;28;20028;-65
2023/07/29 05:48:16;;;;;;;6.03;2.20;;;;;;;21.27;100.00;99495.31;5090068;28;20039;-65
2023/07/29 05:50:42;;;;;;;3.55;2.10;;;;;;;21.25;100.00;99491.88;5091413;28;20107;-66
2023/07/29 05:53:07;;;;;;;6.25;2.30;;;;;;;21.26;100.00;99497.16;5092627;28;20036;-64
2023/07/29 05:55:32;;;;;;;4.13;2.00;;;;;;;21.29;100.00;99504.13;5089720;28;20026;-64
2023/07/29 05:57:58;;;;;;;3.45;1.83;;;;;;;21.27;100.00;99511.53;5090381;28;20898;-64
2023/07/29 06:00:23;;;;;;;4.63;2.55;;;;;;;21.28;100.00;99507.84;5089967;28;20024;-64
2023/07/29 06:02:49;;;;;;;7.10;2.10;;;;;;;21.27;100.00;99514.25;5087975;28;20028;-64
2023/07/29 06:05:14;;;;;;;4.68;2.35;;;;;;;21.25;100.00;99518.91;5086903;28;20260;-64
2023/07/29 06:07:43;;;;;;;4.13;2.25;;;;;;;21.24;100.00;99533.41;5071340;28;20020;-64
2023/07/29 06:10:11;;;;;;;6.85;2.03;;;;;;;21.24;100.00;99538.81;5088612;28;20593;-64
2023/07/29 06:12:37;;;;;;;4.55;2.38;;;;;;;21.25;100.00;99535.16;5087694;28;20604;-65
2023/07/29 06:15:03;;;;;;;5.95;2.72;;;;;;;21.28;100.00;99538.47;5086821;28;20106;-64
2023/07/29 06:17:29;;;;;;;5.90;2.55;;;;;;;21.30;100.00;99533.75;5074510;28;20035;-64
2023/07/29 06:19:54;;;;;;;5.10;2.63;;;;;;;21.21;100.00;99536.38;5068652;28;20043;-64
2023/07/29 06:22:19;;;;;;;5.40;2.55;;;;;;;21.32;100.00;99530.91;5076834;28;20019;-64
2023/07/29 06:24:45;;;;;;;4.32;2.45;;;;;;;21.41;100.00;99536.44;5085421;28;20134;-64
2023/07/29 06:27:10;;;;;;;5.22;2.10;;;;;;;21.48;100.00;99544.91;5087937;28;20112;-64
2023/07/29 06:29:35;;;;;;;4.60;2.35;;;;;;;21.53;100.00;99537.25;5088454;28;20533;-64
2023/07/29 06:32:01;;;;;;;5.25;2.40;;;;;;;21.45;100.00;99537.03;5053672;28;20451;-64
2023/07/29 06:34:26;;;;;;;5.47;2.55;;;;;;;21.62;100.00;99547.28;5068558;28;20024;-64
2023/07/29 06:36:52;;;;;;;3.58;2.00;;;;;;;21.71;100.00;99549.22;5082435;28;20031;-63
2023/07/29 06:39:17;;;;;;;4.50;1.92;;;;;;;21.79;100.00;99535.91;5088694;28;20058;-63
2023/07/29 06:41:42;;;;;;;5.50;1.90;;;;;;;21.75;100.00;99556.06;5088932;28;20028;-64
2023/07/29 06:44:08;;;;;;;3.70;2.00;;;;;;;21.53;100.00;99551.63;5087589;28;20038;-63
2023/07/29 06:46:33;;;;;;;3.03;1.60;;;;;;;21.45;100.00;99558.69;5075921;28;20028;-63
2023/07/29 06:48:59;;;;;;;6.38;3.55;;;;;;;21.47;100.00;99556.69;5084185;28;20111;-63
2023/07/29 06:51:24;;;;;;;5.20;2.05;;;;;;;21.49;100.00;99555.59;5088607;28;20101;-63
2023/07/29 06:53:49;;;;;;;3.65;1.95;;;;;;;21.52;100.00;99541.78;5087680;28;20031;-63
2023/07/29 06:56:15;;;;;;;3.20;2.03;;;;;;;21.63;100.00;99546.31;5087359;28;20028;-63
2023/07/29 06:58:40;;;;;;;6.32;2.85;;;;;;;22.02;100.00;99554.63;5087060;28;20035;-63
2023/07/29 07:01:06;;;;;;;4.30;2.00;;;;;;;22.46;100.00;99547.13;5087059;28;20028;-63
2023/07/29 07:03:31;;;;;;;4.20;1.85;;;;;;;22.67;100.00;99534.41;5086716;28;20032;-62
2023/07/29 07:05:57;;;;;;;3.38;1.92;;;;;;;22.71;100.00;99531.28;5086458;28;20027;-63
2023/07/29 07:08:22;;;;;;;4.75;2.17;;;;;;;22.59;100.00;99528.78;5082258;28;20032;-63
2023/07/29 07:10:48;;;;;;;5.25;2.53;;;;;;;22.69;100.00;99521.56;5084594;28;20032;-62
2023/07/29 07:13:13;;;;;;;3.35;1.67;;;;;;;22.92;100.00;99506.78;5087355;28;20100;-62
2023/07/29 07:15:38;;;;;;;3.45;1.40;;;;;;;23.37;100.00;99529.72;5086291;28;20097;-62
2023/07/29 07:18:04;;;;;;;2.75;1.50;;;;;;;23.66;100.00;99546.03;5086618;28;20084;-63
2023/07/29 07:20:29;;;;;;;5.28;1.90;;;;;;;23.95;100.00;99546.84;5087249;28;20024;-63
2023/07/29 07:22:55;;;;;;;2.38;1.30;;;;;;;24.27;100.00;99541.94;5087653;28;20107;-62
2023/07/29 07:25:21;;;;;;;3.38;1.52;;;;;;;24.29;100.00;99539.94;5088317;28;20639;-62
2023/07/29 07:27:46;;;;;;;7.05;2.22;;;;;;;24.26;100.00;99545.66;5088289;28;20101;-63
2023/07/29 07:30:11;;;;;;;3.72;2.20;;;;;;;24.06;99.85;99546.72;5088605;28;20024;-63
2023/07/29 07:32:37;;;;;;;2.50;1.30;;;;;;;23.89;100.00;99541.97;5086221;28;20101;-62
2023/07/29 07:35:04;;;;;;;4.13;1.50;;;;;;;23.69;100.00;99545.75;5088432;28;20039;-62
2023/07/29 07:37:29;;;;;;;3.92;1.63;;;;;;;23.69;100.00;99537.59;5072512;28;20039;-62
2023/07/29 07:39:54;;;;;;;3.03;1.17;;;;;;;23.82;100.00;99538.97;5071565;28;20036;-62
2023/07/29 07:42:20;;;;;;;3.13;1.48;;;;;;;23.93;100.00;99535.25;5079067;28;20035;-62
2023/07/29 07:44:45;;;;;;;5.20;2.25;;;;;;;24.12;100.00;99541.53;5090685;28;20110;-62
2023/07/29 07:47:11;;;;;;;3.15;1.58;;;;;;;24.37;100.00;99548.19;5090840;28;20049;-62
2023/07/29 07:49:36;;;;;;;6.20;2.03;;;;;;;24.49;100.00;99547.88;5089182;28;20028;-62
2023/07/29 07:52:02;;;;;;;2.03;1.10;;;;;;;24.60;99.30;99544.09;5090671;28;20124;-62
2023/07/29 07:54:27;;;;;;;3.58;1.27;;;;;;;25.10;98.18;99540.00;5089502;28;20145;-62
2023/07/29 07:56:52;;;;;;;3.97;2.58;;;;;;;25.47;94.10;99537.22;5090265;28;20032;-62
2023/07/29 07:59:18;;;;;;;3.22;1.63;;;;;;;25.91;92.66;99536.25;5089377;28;20547;-62
2023/07/29 08:01:43;;;;;;;2.28;0.90;;;;;;;25.97;90.17;99532.88;5088054;28;20031;-61
2023/07/29 08:04:08;;;;;;;2.78;1.27;;;;;;;25.90;88.69;99539.97;5089225;28;20103;-62
2023/07/29 08:06:35;;;;;;;1.52;0.95;;;;;;;25.62;88.31;99544.66;5088013;28;20027;-61
2023/07/29 08:09:01;;;;;;;2.53;0.90;;;;;;;25.58;89.75;99543.28;5089845;28;20075;-61
2023/07/29 08:11:26;;;;;;;1.88;0.80;;;;;;;25.40;90.32;99538.84;5090121;28;20059;-61
2023/07/29 08:13:52;;;;;;;2.08;1.00;;;;;;;25.29;91.22;99539.88;5088895;28;20070;-61
2023/07/29 08:16:17;;;;;;;1.42;0.80;;;;;;;25.29;91.83;99548.03;5084115;28;20094;-62
2023/07/29 08:18:43;;;;;;;2.17;0.93;;;;;;;25.23;91.55;99548.66;5073049;28;20021;-61
2023/07/29 08:21:08;;;;;;;2.47;1.10;;;;;;;25.17;91.96;99551.16;5070863;28;20039;-61
2023/07/29 08:23:35;;;;;;;4.22;1.00;;;;;;;25.04;92.51;99554.22;5076139;28;20213;-61
2023/07/29 08:26:05;;;;;;;1.58;0.85;;;;;;;24.82;93.54;99553.78;5072854;28;20049;-61
2023/07/29 08:28:31;;;;;;;1.58;0.90;;;;;;;24.73;94.20;99560.13;5070627;28;20030;-61
2023/07/29 08:30:57;;;;;;;1.98;0.90;;;;;;;24.59;95.84;99564.16;5070265;28;20055;-62
2023/07/29 08:33:22;;;;;;;2.25;1.20;;;;;;;24.54;96.96;99569.19;5069922;28;20064;-61
2023/07/29 08:35:48;;;;;;;2.42;1.05;;;;;;;24.45;97.25;99562.78;5064359;28;20071;-61
2023/07/29 08:38:13;;;;;;;3.45;1.30;;;;;;;24.45;97.50;99567.34;5050679;28;20021;-62
2023/07/29 08:40:50;;;;;;;2.33;1.10;;;;;;;24.38;98.43;99563.53;5050545;28;20405;-61
2023/07/29 08:43:19;;;;;;;1.77;1.00;;;;;;;24.35;99.51;99571.94;5066651;28;20043;-62
2023/07/29 08:45:46;;;;;;;4.07;1.02;;;;;;;24.30;99.89;99579.72;5070756;28;20036;-61
2023/07/29 08:48:16;;;;;;;3.00;1.70;;;;;;;24.20;100.00;99579.72;5068024;28;20039;-61
2023/07/29 08:50:42;;;;;;;5.68;2.15;;;;;;;24.14;100.00;99579.44;5069202;28;20020;-61
2023/07/29 08:53:08;;;;;;;3.33;1.20;;;;;;;24.03;100.00;99579.63;5068629;28;20769;-61
2023/07/29 08:55:34;;;;;;;2.40;0.93;;;;;;;23.82;100.00;99595.19;5068582;28;20021;-61
2023/07/29 08:57:59;;;;;;;9.55;1.25;;;;;;;23.55;100.00;99586.88;5067099;28;20031;-61
2023/07/29 09:00:25;;;;;;;3.85;1.17;;;;;;;23.23;100.00;99593.38;5067882;28;20098;-63
2023/07/29 09:02:51;;;;;;;6.03;1.55;;;;;;;22.92;100.00;99578.16;5068177;28;20024;-62
2023/07/29 09:05:17;;;;;;;1.98;0.80;;;;;;;22.63;100.00;99593.47;5066750;28;20131;-62
2023/07/29 09:07:44;;;;;;;1.90;0.85;;;;;;;22.42;100.00;99603.44;5055272;28;20032;-62
2023/07/29 09:10:10;;;;;;;0.80;0.47;;;;;;;22.38;100.00;99598.44;5048797;28;20073;-62
2023/07/29 09:12:36;;;;;;;1.85;0.55;;;;;;;22.61;100.00;99590.03;5076966;28;20077;-62
2023/07/29 09:15:02;;;;;;;1.05;0.60;;;;;;;22.93;100.00;99585.28;5090241;28;20023;-62
2023/07/29 09:17:31;;;;;;;0.68;0.43;;;;;;;23.08;100.00;99577.66;5076053;28;20024;-62
2023/07/29 09:19:57;;;;;;;0.70;0.30;;;;;;;23.30;100.00;99572.00;5089662;28;20102;-62
2023/07/29 09:22:22;;;;;;;1.23;0.63;;;;;;;23.98;100.00;99574.63;5078253;28;20098;-62
2023/07/29 09:24:48;;;;;;;1.92;0.60;;;;;;;24.49;100.00;99579.66;5078506;28;20052;-62
2023/07/29 09:27:27;;;;;;;2.13;0.52;;;;;;;25.15;100.00;99578.53;5088768;28;20020;-62
2023/07/29 09:29:53;;;;;;;1.58;0.40;;;;;;;25.84;98.33;99574.16;5089029;28;20028;-62
2023/07/29 09:32:24;;;;;;;3.05;0.45;;;;;;;26.32;95.11;99575.59;5084531;28;20119;-62
2023/07/29 09:34:50;;;;;;;1.65;0.40;;;;;;;26.99;93.78;99571.06;5088755;28;20418;-61
2023/07/29 09:37:22;;;;;;;0.80;0.47;;;;;;;27.71;86.69;99577.78;5088859;28;20386;-62
2023/07/29 09:39:49;;;;;;;7.32;0.85;;;;;;;27.90;83.04;99583.81;5088449;28;20104;-62
2023/07/29 09:42:22;;;;;;;0.88;0.60;;;;;;;27.78;81.06;99576.91;5088215;28;20036;-62
2023/07/29 09:44:51;;;;;;;4.45;1.55;;;;;;;27.61;83.98;99582.53;5068154;28;20037;-62
2023/07/29 09:47:25;;;;;;;2.30;0.40;;;;;;;27.41;83.88;99586.59;5085049;28;20032;-62
2023/07/29 09:49:51;;;;;;;3.50;0.50;;;;;;;27.20;83.73;99596.03;5087222;28;20032;-61
2023/07/29 09:52:18;;;;;;;1.33;0.43;;;;;;;27.13;83.55;99589.53;5086075;28;20040;-61
2023/07/29 09:54:44;;;;;;;1.50;0.60;;;;;;;27.50;84.49;99597.38;5087084;28;20380;-61
2023/07/29 09:57:12;;;;;;;0.65;0.38;;;;;;;28.10;81.89;99612.53;5076568;28;20035;-61
2023/07/29 09:59:37;;;;;;;0.47;0.30;;;;;;;28.71;80.42;99597.44;5066630;28;20024;-61
2023/07/29 10:02:03;;;;;;;0.60;0.40;;;;;;;28.97;76.47;99601.63;5081285;28;20372;-61
2023/07/29 10:04:30;;;;;;;16.90;2.30;;;;;;;29.05;76.44;99603.47;5087987;28;20232;-61
2023/07/29 10:06:57;;;;;;;6.93;1.42;;;;;;;28.66;76.21;99599.84;5087257;28;20020;-61
2023/07/29 10:09:23;;;;;;;10.60;1.55;;;;;;;28.18;75.68;99603.47;5086568;28;20042;-61
2023/07/29 10:11:50;;;;;;;2.53;0.50;;;;;;;27.68;75.98;99589.88;5087318;28;20383;-61
2023/07/29 10:14:17;;;;;;;0.77;0.60;;;;;;;27.05;79.80;99599.59;5086615;28;20119;-61
2023/07/29 10:16:45;;;;;;;0.85;0.38;;;;;;;26.99;82.00;99608.41;5087874;28;20028;-61
2023/07/29 10:19:12;;;;;;;1.33;0.60;;;;;;;26.89;80.10;99604.94;5086437;28;20016;-61
2023/07/29 10:21:39;;;;;;;1.08;0.65;;;;;;;26.95;78.67;99602.41;5088526;28;20024;-61
2023/07/29 10:24:09;;;;;;;1.45;0.60;;;;;;;27.37;78.99;99596.13;5073127;28;20577;-61
2023/07/29 10:26:38;;;;;;;2.28;0.65;;;;;;;27.69;76.81;99594.34;5067739;28;20040;-61
2023/07/29 10:29:08;;;;;;;1.60;0.50;;;;;;;27.87;75.53;99595.06;5068966;28;20029;-61
2023/07/29 10:31:35;;;;;;;1.73;0.50;;;;;;;28.12;74.70;99588.56;5068758;28;20113;-61
2023/07/29 10:34:01;;;;;;;0.65;0.50;;;;;;;28.38;73.11;99594.69;5069680;28;20021;-61
2023/07/29 10:36:28;;;;;;;6.40;0.70;;;;;;;28.71;74.61;99594.69;5069139;28;20483;-61
2023/07/29 10:38:53;;;;;;;1.58;0.50;;;;;;;28.82;71.96;99592.44;5068936;28;20028;-61
2023/07/29 10:41:19;;;;;;;1.55;0.50;;;;;;;28.91;66.30;99591.38;5067115;28;20789;-61
2023/07/29 10:43:44;;;;;;;2.03;0.65;;;;;;;29.11;68.87;99578.16;5067089;28;20024;-61
2023/07/29 10:46:20;;;;;;;0.80;0.45;;;;;;;29.27;67.83;99581.69;5065339;28;20459;-61
2023/07/29 10:48:58;;;;;;;1.63;0.80;;;;;;;29.79;67.09;99581.88;5066389;28;20033;-61
2023/07/29 10:51:37;;;;;;;1.85;0.80;;;;;;;29.92;63.72;99579.38;5060475;28;20033;-61
2023/07/29 10:54:04;;;;;;;1.38;0.73;;;;;;;30.01;64.14;99581.03;5055359;28;20064;-62
2023/07/29 10:56:32;;;;;;;1.30;0.63;;;;;;;30.03;62.52;99578.97;5046461;28;20059;-61
2023/07/29 10:59:19;;;;;;;4.45;0.57;;;;;;;30.47;63.74;99592.81;5059356;28;20078;-61
2023/07/29 11:01:58;;;;;;;1.33;0.40;;;;;;;30.76;63.10;99590.09;5024994;28;20037;-61
2023/07/29 11:04:26;;;;;;;2.63;0.95;;;;;;;31.00;59.94;99587.13;5064074;28;20070;-62
2023/07/29 11:07:22;;;;;;;1.27;0.40;;;;;;;31.03;56.39;99588.63;5063119;28;20074;-61
2023/07/29 11:09:48;;;;;;;1.05;0.50;;;;;;;31.09;55.94;99583.22;5047541;28;20083;-61
2023/07/29 11:12:51;;;;;;;1.15;0.50;;;;;;;30.86;58.37;99572.34;5049880;28;20024;-61
2023/07/29 11:15:24;;;;;;;0.65;0.43;;;;;;;30.68;58.11;99574.56;5058800;28;20036;-62
2023/07/29 11:17:51;;;;;;;1.23;0.60;;;;;;;30.63;59.23;99577.03;5069071;28;20025;-61
2023/07/29 11:20:20;;;;;;;3.00;0.60;;;;;;;30.23;59.18;99566.44;5061429;28;20040;-61
2023/07/29 11:22:45;;;;;;;0.90;0.60;;;;;;;30.18;60.51;99571.59;5064745;28;20032;-62
2023/07/29 11:25:13;;;;;;;1.23;0.80;;;;;;;30.25;56.66;99569.88;5067096;28;20072;-62